Terminal Aerodrome Forecast
Issued by NWS Sioux Falls, SD

Home | Current Version | Previous Version | Graphics & Text | Print | Product List | Glossary On
Versions: 1 2 3 4 5 6 7 8 9 10 11 12 13 14 15 16 17 18 19 20
000
FTUS43 KFSD 191455 AAA
TAFHON
TAF AMD
KHON 191455Z 1915/2012 17010KT 3SM BR OVC005
     FM191700 17010KT 5SM BR OVC008
     FM191900 16008KT P6SM BKN012 OVC025
     FM200100 17008KT P6SM BKN007 OVC015
     FM200600 18006KT 5SM BR OVC007=

USA.gov is the U.S. government's official web portal to all federal, state and local government web resources and services.